sensor_id;sensor_type;location;lat;lon;timestamp;P1;durP1;ratioP1;P2;durP2;ratioP2
82242;SDS011;71844;51.528;4.442;2023-11-22T00:00:16;6.13;;;2.85;;
82242;SDS011;71844;51.528;4.442;2023-11-22T00:02:43;7.15;;;3.03;;
82242;SDS011;71844;51.528;4.442;2023-11-22T00:05:10;7.05;;;3.38;;
82242;SDS011;71844;51.528;4.442;2023-11-22T00:07:38;6.93;;;3.05;;
82242;SDS011;71844;51.528;4.442;2023-11-22T00:10:05;5.63;;;2.72;;
82242;SDS011;71844;51.528;4.442;2023-11-22T00:12:35;5.28;;;2.60;;
82242;SDS011;71844;51.528;4.442;2023-11-22T00:15:05;7.45;;;3.28;;
82242;SDS011;71844;51.528;4.442;2023-11-22T00:17:33;6.88;;;2.67;;
82242;SDS011;71844;51.528;4.442;2023-11-22T00:20:01;5.53;;;2.60;;
82242;SDS011;71844;51.528;4.442;2023-11-22T00:22:32;8.77;;;2.88;;
82242;SDS011;71844;51.528;4.442;2023-11-22T00:24:59;7.10;;;2.83;;
82242;SDS011;71844;51.528;4.442;2023-11-22T00:27:28;5.93;;;2.45;;
82242;SDS011;71844;51.528;4.442;2023-11-22T00:29:56;5.05;;;2.58;;
82242;SDS011;71844;51.528;4.442;2023-11-22T00:32:23;7.05;;;2.63;;
82242;SDS011;71844;51.528;4.442;2023-11-22T00:34:52;5.30;;;2.75;;
82242;SDS011;71844;51.528;4.442;2023-11-22T00:37:19;6.07;;;2.58;;
82242;SDS011;71844;51.528;4.442;2023-11-22T00:39:46;6.90;;;2.60;;
82242;SDS011;71844;51.528;4.442;2023-11-22T00:42:14;6.18;;;2.80;;
82242;SDS011;71844;51.528;4.442;2023-11-22T00:44:41;6.00;;;2.40;;
82242;SDS011;71844;51.528;4.442;2023-11-22T00:47:08;5.22;;;2.53;;
82242;SDS011;71844;51.528;4.442;2023-11-22T00:49:35;6.90;;;2.65;;
82242;SDS011;71844;51.528;4.442;2023-11-22T00:52:01;7.22;;;2.97;;
82242;SDS011;71844;51.528;4.442;2023-11-22T00:57:05;6.55;;;2.80;;
82242;SDS011;71844;51.528;4.442;2023-11-22T00:59:33;5.38;;;2.50;;
82242;SDS011;71844;51.528;4.442;2023-11-22T01:02:00;6.53;;;2.60;;
82242;SDS011;71844;51.528;4.442;2023-11-22T01:04:31;7.70;;;2.80;;
82242;SDS011;71844;51.528;4.442;2023-11-22T01:07:00;6.22;;;2.63;;
82242;SDS011;71844;51.528;4.442;2023-11-22T01:09:27;5.47;;;2.17;;
82242;SDS011;71844;51.528;4.442;2023-11-22T01:11:55;6.10;;;2.70;;
82242;SDS011;71844;51.528;4.442;2023-11-22T01:14:22;5.97;;;2.75;;
82242;SDS011;71844;51.528;4.442;2023-11-22T01:16:49;6.40;;;2.90;;
82242;SDS011;71844;51.528;4.442;2023-11-22T01:19:16;5.40;;;2.88;;
82242;SDS011;71844;51.528;4.442;2023-11-22T01:21:43;7.03;;;2.63;;
82242;SDS011;71844;51.528;4.442;2023-11-22T01:24:10;6.97;;;3.42;;
82242;SDS011;71844;51.528;4.442;2023-11-22T01:26:37;8.15;;;3.53;;
82242;SDS011;71844;51.528;4.442;2023-11-22T01:29:05;7.43;;;2.95;;
82242;SDS011;71844;51.528;4.442;2023-11-22T01:31:32;9.10;;;4.60;;
82242;SDS011;71844;51.528;4.442;2023-11-22T01:33:59;6.32;;;2.97;;
82242;SDS011;71844;51.528;4.442;2023-11-22T01:36:26;7.25;;;3.10;;
82242;SDS011;71844;51.528;4.442;2023-11-22T01:38:54;8.88;;;3.25;;
82242;SDS011;71844;51.528;4.442;2023-11-22T01:41:22;7.18;;;3.22;;
82242;SDS011;71844;51.528;4.442;2023-11-22T01:43:49;7.68;;;3.25;;
82242;SDS011;71844;51.528;4.442;2023-11-22T01:46:23;7.78;;;3.08;;
82242;SDS011;71844;51.528;4.442;2023-11-22T01:48:52;6.82;;;3.20;;
82242;SDS011;71844;51.528;4.442;2023-11-22T01:51:20;7.25;;;3.25;;
82242;SDS011;71844;51.528;4.442;2023-11-22T01:53:48;7.13;;;3.17;;
82242;SDS011;71844;51.528;4.442;2023-11-22T01:56:22;7.10;;;2.85;;
82242;SDS011;71844;51.528;4.442;2023-11-22T01:58:50;5.97;;;2.60;;
82242;SDS011;71844;51.528;4.442;2023-11-22T02:01:21;6.47;;;2.90;;
82242;SDS011;71844;51.528;4.442;2023-11-22T02:03:48;7.00;;;3.10;;
82242;SDS011;71844;51.528;4.442;2023-11-22T02:06:15;7.25;;;2.83;;
82242;SDS011;71844;51.528;4.442;2023-11-22T02:08:42;6.57;;;2.70;;
82242;SDS011;71844;51.528;4.442;2023-11-22T02:11:10;8.60;;;3.20;;
82242;SDS011;71844;51.528;4.442;2023-11-22T02:13:36;7.75;;;3.10;;
82242;SDS011;71844;51.528;4.442;2023-11-22T02:16:04;7.88;;;2.72;;
82242;SDS011;71844;51.528;4.442;2023-11-22T02:18:31;6.32;;;3.03;;
82242;SDS011;71844;51.528;4.442;2023-11-22T02:20:58;6.20;;;2.88;;
82242;SDS011;71844;51.528;4.442;2023-11-22T02:23:25;7.28;;;2.97;;
82242;SDS011;71844;51.528;4.442;2023-11-22T02:25:53;6.97;;;2.78;;
82242;SDS011;71844;51.528;4.442;2023-11-22T02:28:23;6.63;;;2.83;;
82242;SDS011;71844;51.528;4.442;2023-11-22T02:30:49;6.07;;;2.80;;
82242;SDS011;71844;51.528;4.442;2023-11-22T02:33:17;6.43;;;2.85;;
82242;SDS011;71844;51.528;4.442;2023-11-22T02:35:45;8.15;;;2.85;;
82242;SDS011;71844;51.528;4.442;2023-11-22T02:38:12;5.88;;;2.60;;
82242;SDS011;71844;51.528;4.442;2023-11-22T02:40:39;7.40;;;2.72;;
82242;SDS011;71844;51.528;4.442;2023-11-22T02:43:06;7.20;;;2.55;;
82242;SDS011;71844;51.528;4.442;2023-11-22T02:45:35;6.82;;;3.03;;
82242;SDS011;71844;51.528;4.442;2023-11-22T02:48:02;7.30;;;2.55;;
82242;SDS011;71844;51.528;4.442;2023-11-22T02:50:30;5.95;;;2.72;;
82242;SDS011;71844;51.528;4.442;2023-11-22T02:53:00;5.68;;;2.67;;
82242;SDS011;71844;51.528;4.442;2023-11-22T02:55:28;6.95;;;2.72;;
82242;SDS011;71844;51.528;4.442;2023-11-22T02:57:56;6.88;;;2.72;;
82242;SDS011;71844;51.528;4.442;2023-11-22T03:00:22;5.88;;;2.75;;
82242;SDS011;71844;51.528;4.442;2023-11-22T03:02:51;7.43;;;3.13;;
82242;SDS011;71844;51.528;4.442;2023-11-22T03:05:20;7.05;;;2.72;;
82242;SDS011;71844;51.528;4.442;2023-11-22T03:07:48;5.72;;;2.60;;
82242;SDS011;71844;51.528;4.442;2023-11-22T03:10:17;5.90;;;2.72;;
82242;SDS011;71844;51.528;4.442;2023-11-22T03:12:47;6.45;;;2.63;;
82242;SDS011;71844;51.528;4.442;2023-11-22T03:15:14;5.25;;;2.45;;
82242;SDS011;71844;51.528;4.442;2023-11-22T03:17:41;6.75;;;2.83;;
82242;SDS011;71844;51.528;4.442;2023-11-22T03:20:08;9.05;;;2.88;;
82242;SDS011;71844;51.528;4.442;2023-11-22T03:22:37;6.30;;;2.78;;
82242;SDS011;71844;51.528;4.442;2023-11-22T03:25:05;7.18;;;2.80;;
82242;SDS011;71844;51.528;4.442;2023-11-22T03:27:37;6.20;;;2.53;;
82242;SDS011;71844;51.528;4.442;2023-11-22T03:30:04;4.72;;;2.22;;
82242;SDS011;71844;51.528;4.442;2023-11-22T03:32:34;6.80;;;3.15;;
82242;SDS011;71844;51.528;4.442;2023-11-22T03:35:04;7.07;;;2.60;;
82242;SDS011;71844;51.528;4.442;2023-11-22T03:37:33;6.70;;;2.92;;
82242;SDS011;71844;51.528;4.442;2023-11-22T03:40:00;5.85;;;2.53;;
82242;SDS011;71844;51.528;4.442;2023-11-22T03:42:30;5.93;;;3.03;;
82242;SDS011;71844;51.528;4.442;2023-11-22T03:47:27;6.07;;;2.30;;
82242;SDS011;71844;51.528;4.442;2023-11-22T03:49:54;5.05;;;2.67;;
82242;SDS011;71844;51.528;4.442;2023-11-22T03:52:23;6.55;;;2.65;;
82242;SDS011;71844;51.528;4.442;2023-11-22T03:54:54;7.10;;;2.67;;
82242;SDS011;71844;51.528;4.442;2023-11-22T03:57:22;6.32;;;3.15;;
82242;SDS011;71844;51.528;4.442;2023-11-22T03:59:49;7.55;;;3.20;;
82242;SDS011;71844;51.528;4.442;2023-11-22T04:02:25;6.45;;;2.67;;
82242;SDS011;71844;51.528;4.442;2023-11-22T04:04:54;6.95;;;3.08;;
82242;SDS011;71844;51.528;4.442;2023-11-22T04:09:57;6.05;;;2.92;;
82242;SDS011;71844;51.528;4.442;2023-11-22T04:12:24;7.10;;;2.88;;
82242;SDS011;71844;51.528;4.442;2023-11-22T04:14:51;5.55;;;2.42;;
82242;SDS011;71844;51.528;4.442;2023-11-22T04:17:18;6.78;;;3.08;;
82242;SDS011;71844;51.528;4.442;2023-11-22T04:19:45;7.57;;;2.90;;
82242;SDS011;71844;51.528;4.442;2023-11-22T04:22:12;6.57;;;2.90;;
82242;SDS011;71844;51.528;4.442;2023-11-22T04:24:39;7.40;;;3.17;;
82242;SDS011;71844;51.528;4.442;2023-11-22T04:27:06;7.03;;;2.88;;
82242;SDS011;71844;51.528;4.442;2023-11-22T04:29:33;6.43;;;3.15;;
82242;SDS011;71844;51.528;4.442;2023-11-22T04:32:03;6.32;;;2.90;;
82242;SDS011;71844;51.528;4.442;2023-11-22T04:34:30;6.95;;;2.72;;
82242;SDS011;71844;51.528;4.442;2023-11-22T04:36:57;6.07;;;3.03;;
82242;SDS011;71844;51.528;4.442;2023-11-22T04:39:24;5.28;;;2.42;;
82242;SDS011;71844;51.528;4.442;2023-11-22T04:41:51;5.70;;;2.45;;
82242;SDS011;71844;51.528;4.442;2023-11-22T04:44:18;6.47;;;2.90;;
82242;SDS011;71844;51.528;4.442;2023-11-22T04:46:44;5.63;;;2.50;;
82242;SDS011;71844;51.528;4.442;2023-11-22T04:49:11;6.93;;;4.07;;
82242;SDS011;71844;51.528;4.442;2023-11-22T04:51:39;9.55;;;6.10;;
82242;SDS011;71844;51.528;4.442;2023-11-22T04:54:06;10.32;;;6.28;;
82242;SDS011;71844;51.528;4.442;2023-11-22T04:56:35;9.30;;;5.13;;
82242;SDS011;71844;51.528;4.442;2023-11-22T04:59:02;8.70;;;4.00;;
82242;SDS011;71844;51.528;4.442;2023-11-22T05:01:33;6.47;;;3.25;;
82242;SDS011;71844;51.528;4.442;2023-11-22T05:04:00;7.13;;;3.05;;
82242;SDS011;71844;51.528;4.442;2023-11-22T05:06:28;6.82;;;3.25;;
82242;SDS011;71844;51.528;4.442;2023-11-22T05:08:55;7.78;;;3.67;;
82242;SDS011;71844;51.528;4.442;2023-11-22T05:11:22;5.97;;;2.90;;
82242;SDS011;71844;51.528;4.442;2023-11-22T05:13:49;6.15;;;2.70;;
82242;SDS011;71844;51.528;4.442;2023-11-22T05:16:17;7.18;;;2.95;;
82242;SDS011;71844;51.528;4.442;2023-11-22T05:18:44;6.10;;;2.80;;
82242;SDS011;71844;51.528;4.442;2023-11-22T05:21:11;6.18;;;2.53;;
82242;SDS011;71844;51.528;4.442;2023-11-22T05:23:38;7.20;;;3.25;;
82242;SDS011;71844;51.528;4.442;2023-11-22T05:26:09;6.63;;;2.80;;
82242;SDS011;71844;51.528;4.442;2023-11-22T05:28:36;4.40;;;2.53;;
82242;SDS011;71844;51.528;4.442;2023-11-22T05:31:03;6.45;;;2.85;;
82242;SDS011;71844;51.528;4.442;2023-11-22T05:33:30;7.13;;;3.03;;
82242;SDS011;71844;51.528;4.442;2023-11-22T05:35:58;7.10;;;3.25;;
82242;SDS011;71844;51.528;4.442;2023-11-22T05:38:25;7.32;;;3.35;;
82242;SDS011;71844;51.528;4.442;2023-11-22T05:40:53;5.10;;;2.38;;
82242;SDS011;71844;51.528;4.442;2023-11-22T05:43:20;6.78;;;2.75;;
82242;SDS011;71844;51.528;4.442;2023-11-22T05:45:53;10.50;;;2.83;;
82242;SDS011;71844;51.528;4.442;2023-11-22T05:48:20;6.82;;;2.80;;
82242;SDS011;71844;51.528;4.442;2023-11-22T05:50:48;6.93;;;2.97;;
82242;SDS011;71844;51.528;4.442;2023-11-22T05:53:15;5.40;;;2.75;;
82242;SDS011;71844;51.528;4.442;2023-11-22T05:55:48;6.68;;;2.58;;
82242;SDS011;71844;51.528;4.442;2023-11-22T05:58:15;8.20;;;3.17;;
82242;SDS011;71844;51.528;4.442;2023-11-22T06:00:46;6.78;;;2.95;;
82242;SDS011;71844;51.528;4.442;2023-11-22T06:03:13;6.20;;;2.55;;
82242;SDS011;71844;51.528;4.442;2023-11-22T06:05:40;5.35;;;2.47;;
82242;SDS011;71844;51.528;4.442;2023-11-22T06:08:07;5.97;;;3.65;;
82242;SDS011;71844;51.528;4.442;2023-11-22T06:10:36;7.90;;;3.33;;
82242;SDS011;71844;51.528;4.442;2023-11-22T06:13:04;7.30;;;3.45;;
82242;SDS011;71844;51.528;4.442;2023-11-22T06:15:31;7.80;;;2.80;;
82242;SDS011;71844;51.528;4.442;2023-11-22T06:17:58;8.63;;;3.40;;
82242;SDS011;71844;51.528;4.442;2023-11-22T06:20:25;7.35;;;3.45;;
82242;SDS011;71844;51.528;4.442;2023-11-22T06:22:53;7.40;;;2.90;;
82242;SDS011;71844;51.528;4.442;2023-11-22T06:25:20;8.48;;;2.95;;
82242;SDS011;71844;51.528;4.442;2023-11-22T06:27:47;7.45;;;3.40;;
82242;SDS011;71844;51.528;4.442;2023-11-22T06:30:14;8.32;;;3.72;;
82242;SDS011;71844;51.528;4.442;2023-11-22T06:32:41;7.28;;;3.28;;
82242;SDS011;71844;51.528;4.442;2023-11-22T06:35:11;7.72;;;3.58;;
82242;SDS011;71844;51.528;4.442;2023-11-22T06:37:41;7.45;;;3.80;;
82242;SDS011;71844;51.528;4.442;2023-11-22T06:40:08;7.97;;;3.00;;
82242;SDS011;71844;51.528;4.442;2023-11-22T06:42:35;9.13;;;3.28;;
82242;SDS011;71844;51.528;4.442;2023-11-22T06:45:02;10.25;;;3.80;;
82242;SDS011;71844;51.528;4.442;2023-11-22T06:47:30;8.23;;;3.17;;
82242;SDS011;71844;51.528;4.442;2023-11-22T06:49:57;8.45;;;4.07;;
82242;SDS011;71844;51.528;4.442;2023-11-22T06:52:24;7.30;;;3.13;;
82242;SDS011;71844;51.528;4.442;2023-11-22T06:54:51;8.50;;;3.17;;
82242;SDS011;71844;51.528;4.442;2023-11-22T06:57:18;7.97;;;3.13;;
82242;SDS011;71844;51.528;4.442;2023-11-22T06:59:45;7.75;;;3.42;;
82242;SDS011;71844;51.528;4.442;2023-11-22T07:05:14;8.75;;;3.55;;
82242;SDS011;71844;51.528;4.442;2023-11-22T07:07:41;8.10;;;3.47;;
82242;SDS011;71844;51.528;4.442;2023-11-22T07:10:08;7.90;;;3.53;;
82242;SDS011;71844;51.528;4.442;2023-11-22T07:12:35;10.20;;;3.40;;
82242;SDS011;71844;51.528;4.442;2023-11-22T07:15:02;9.40;;;3.90;;
82242;SDS011;71844;51.528;4.442;2023-11-22T07:17:29;8.13;;;3.38;;
82242;SDS011;71844;51.528;4.442;2023-11-22T07:19:57;9.93;;;3.70;;
82242;SDS011;71844;51.528;4.442;2023-11-22T07:22:23;10.88;;;4.18;;
82242;SDS011;71844;51.528;4.442;2023-11-22T07:24:50;9.82;;;4.22;;
82242;SDS011;71844;51.528;4.442;2023-11-22T07:27:17;9.63;;;4.07;;
82242;SDS011;71844;51.528;4.442;2023-11-22T07:29:47;10.68;;;3.92;;
82242;SDS011;71844;51.528;4.442;2023-11-22T07:32:14;11.48;;;4.60;;
82242;SDS011;71844;51.528;4.442;2023-11-22T07:34:41;11.35;;;3.50;;
82242;SDS011;71844;51.528;4.442;2023-11-22T07:37:08;10.85;;;4.13;;
82242;SDS011;71844;51.528;4.442;2023-11-22T07:39:35;10.05;;;4.97;;
82242;SDS011;71844;51.528;4.442;2023-11-22T07:42:04;9.65;;;3.97;;
82242;SDS011;71844;51.528;4.442;2023-11-22T07:44:35;9.35;;;4.15;;
82242;SDS011;71844;51.528;4.442;2023-11-22T07:47:04;9.02;;;4.20;;
82242;SDS011;71844;51.528;4.442;2023-11-22T07:49:38;8.95;;;4.07;;
82242;SDS011;71844;51.528;4.442;2023-11-22T07:52:06;10.13;;;3.65;;
82242;SDS011;71844;51.528;4.442;2023-11-22T07:54:33;9.32;;;4.05;;
82242;SDS011;71844;51.528;4.442;2023-11-22T07:57:03;9.02;;;3.95;;
82242;SDS011;71844;51.528;4.442;2023-11-22T07:59:30;9.63;;;4.10;;
82242;SDS011;71844;51.528;4.442;2023-11-22T08:01:57;7.72;;;3.33;;
82242;SDS011;71844;51.528;4.442;2023-11-22T08:04:24;9.15;;;3.40;;
82242;SDS011;71844;51.528;4.442;2023-11-22T08:06:51;8.35;;;3.75;;
82242;SDS011;71844;51.528;4.442;2023-11-22T08:09:23;9.13;;;3.30;;
82242;SDS011;71844;51.528;4.442;2023-11-22T08:11:50;8.90;;;3.83;;
82242;SDS011;71844;51.528;4.442;2023-11-22T08:14:19;9.55;;;3.83;;
82242;SDS011;71844;51.528;4.442;2023-11-22T08:19:16;7.70;;;3.15;;
82242;SDS011;71844;51.528;4.442;2023-11-22T08:21:43;7.03;;;3.13;;
82242;SDS011;71844;51.528;4.442;2023-11-22T08:24:10;7.03;;;3.15;;
82242;SDS011;71844;51.528;4.442;2023-11-22T08:26:39;8.32;;;3.80;;
82242;SDS011;71844;51.528;4.442;2023-11-22T08:29:07;8.27;;;3.75;;
82242;SDS011;71844;51.528;4.442;2023-11-22T08:31:34;8.15;;;3.78;;
82242;SDS011;71844;51.528;4.442;2023-11-22T08:34:02;9.32;;;3.78;;
82242;SDS011;71844;51.528;4.442;2023-11-22T08:36:33;8.20;;;3.75;;
82242;SDS011;71844;51.528;4.442;2023-11-22T08:39:01;8.20;;;3.75;;
82242;SDS011;71844;51.528;4.442;2023-11-22T08:41:31;8.35;;;3.58;;
82242;SDS011;71844;51.528;4.442;2023-11-22T08:44:01;8.75;;;3.75;;
82242;SDS011;71844;51.528;4.442;2023-11-22T08:46:28;10.10;;;4.45;;
82242;SDS011;71844;51.528;4.442;2023-11-22T08:48:58;9.80;;;4.45;;
82242;SDS011;71844;51.528;4.442;2023-11-22T08:53:54;8.20;;;3.25;;
82242;SDS011;71844;51.528;4.442;2023-11-22T08:56:22;8.57;;;3.80;;
82242;SDS011;71844;51.528;4.442;2023-11-22T08:58:48;9.15;;;4.18;;
82242;SDS011;71844;51.528;4.442;2023-11-22T09:01:16;8.90;;;4.15;;
82242;SDS011;71844;51.528;4.442;2023-11-22T09:03:43;11.10;;;4.70;;
82242;SDS011;71844;51.528;4.442;2023-11-22T09:06:10;10.90;;;4.10;;
82242;SDS011;71844;51.528;4.442;2023-11-22T09:08:37;9.82;;;4.22;;
82242;SDS011;71844;51.528;4.442;2023-11-22T09:11:06;8.77;;;3.50;;
82242;SDS011;71844;51.528;4.442;2023-11-22T09:13:36;9.07;;;3.80;;
82242;SDS011;71844;51.528;4.442;2023-11-22T09:16:03;10.18;;;4.90;;
82242;SDS011;71844;51.528;4.442;2023-11-22T09:21:08;9.85;;;4.65;;
82242;SDS011;71844;51.528;4.442;2023-11-22T09:23:39;10.27;;;4.32;;
82242;SDS011;71844;51.528;4.442;2023-11-22T09:26:06;9.75;;;4.45;;
82242;SDS011;71844;51.528;4.442;2023-11-22T09:28:33;9.68;;;4.93;;
82242;SDS011;71844;51.528;4.442;2023-11-22T09:31:00;9.38;;;4.32;;
82242;SDS011;71844;51.528;4.442;2023-11-22T09:33:32;9.48;;;4.78;;
82242;SDS011;71844;51.528;4.442;2023-11-22T09:36:00;11.27;;;5.07;;
82242;SDS011;71844;51.528;4.442;2023-11-22T09:38:34;10.30;;;4.90;;
82242;SDS011;71844;51.528;4.442;2023-11-22T09:41:02;10.55;;;4.93;;
82242;SDS011;71844;51.528;4.442;2023-11-22T09:43:29;11.35;;;4.75;;
82242;SDS011;71844;51.528;4.442;2023-11-22T09:45:56;11.75;;;5.53;;
82242;SDS011;71844;51.528;4.442;2023-11-22T09:48:25;10.73;;;5.13;;
82242;SDS011;71844;51.528;4.442;2023-11-22T09:53:22;9.48;;;4.47;;
82242;SDS011;71844;51.528;4.442;2023-11-22T09:55:58;9.30;;;4.28;;
82242;SDS011;71844;51.528;4.442;2023-11-22T09:58:25;10.10;;;4.47;;
82242;SDS011;71844;51.528;4.442;2023-11-22T10:00:56;9.77;;;4.55;;
82242;SDS011;71844;51.528;4.442;2023-11-22T10:03:23;9.95;;;5.47;;
82242;SDS011;71844;51.528;4.442;2023-11-22T10:05:52;10.23;;;5.40;;
82242;SDS011;71844;51.528;4.442;2023-11-22T10:08:20;12.05;;;5.78;;
82242;SDS011;71844;51.528;4.442;2023-11-22T10:10:49;11.55;;;6.00;;
82242;SDS011;71844;51.528;4.442;2023-11-22T10:13:48;10.13;;;5.32;;
82242;SDS011;71844;51.528;4.442;2023-11-22T10:16:16;9.93;;;4.88;;
82242;SDS011;71844;51.528;4.442;2023-11-22T10:18:46;11.02;;;5.60;;
82242;SDS011;71844;51.528;4.442;2023-11-22T10:23:57;9.73;;;5.57;;
82242;SDS011;71844;51.528;4.442;2023-11-22T10:26:28;10.82;;;6.22;;
82242;SDS011;71844;51.528;4.442;2023-11-22T10:28:56;10.85;;;6.10;;
82242;SDS011;71844;51.528;4.442;2023-11-22T10:31:23;10.07;;;6.00;;
82242;SDS011;71844;51.528;4.442;2023-11-22T10:33:51;9.80;;;5.45;;
82242;SDS011;71844;51.528;4.442;2023-11-22T10:36:20;10.82;;;6.38;;
82242;SDS011;71844;51.528;4.442;2023-11-22T10:38:49;11.57;;;6.63;;
82242;SDS011;71844;51.528;4.442;2023-11-22T10:41:17;11.45;;;6.55;;
82242;SDS011;71844;51.528;4.442;2023-11-22T10:43:48;13.20;;;7.95;;
82242;SDS011;71844;51.528;4.442;2023-11-22T10:46:18;12.07;;;7.43;;
82242;SDS011;71844;51.528;4.442;2023-11-22T10:48:50;13.73;;;7.95;;
82242;SDS011;71844;51.528;4.442;2023-11-22T10:51:17;13.73;;;8.80;;
82242;SDS011;71844;51.528;4.442;2023-11-22T10:53:48;15.27;;;8.60;;
82242;SDS011;71844;51.528;4.442;2023-11-22T10:56:17;12.68;;;8.43;;
82242;SDS011;71844;51.528;4.442;2023-11-22T10:58:51;12.65;;;7.78;;
82242;SDS011;71844;51.528;4.442;2023-11-22T11:01:22;13.57;;;8.32;;
82242;SDS011;71844;51.528;4.442;2023-11-22T11:06:40;14.85;;;9.38;;
82242;SDS011;71844;51.528;4.442;2023-11-22T11:09:11;16.30;;;8.98;;
82242;SDS011;71844;51.528;4.442;2023-11-22T11:11:41;16.63;;;9.15;;
82242;SDS011;71844;51.528;4.442;2023-11-22T11:14:10;14.38;;;9.05;;
82242;SDS011;71844;51.528;4.442;2023-11-22T11:16:38;16.52;;;8.68;;
82242;SDS011;71844;51.528;4.442;2023-11-22T11:19:14;15.68;;;8.50;;
82242;SDS011;71844;51.528;4.442;2023-11-22T11:21:44;14.43;;;8.70;;
82242;SDS011;71844;51.528;4.442;2023-11-22T11:24:11;15.32;;;9.32;;
82242;SDS011;71844;51.528;4.442;2023-11-22T11:26:38;17.58;;;10.13;;
82242;SDS011;71844;51.528;4.442;2023-11-22T11:29:05;17.42;;;10.45;;
82242;SDS011;71844;51.528;4.442;2023-11-22T11:31:38;17.92;;;11.15;;
82242;SDS011;71844;51.528;4.442;2023-11-22T11:34:06;17.63;;;11.38;;
82242;SDS011;71844;51.528;4.442;2023-11-22T11:36:36;18.63;;;10.95;;
82242;SDS011;71844;51.528;4.442;2023-11-22T11:39:05;18.92;;;10.75;;
82242;SDS011;71844;51.528;4.442;2023-11-22T11:41:41;14.68;;;9.73;;
82242;SDS011;71844;51.528;4.442;2023-11-22T11:44:13;15.48;;;9.00;;
82242;SDS011;71844;51.528;4.442;2023-11-22T11:46:43;16.25;;;10.00;;
82242;SDS011;71844;51.528;4.442;2023-11-22T11:49:13;17.80;;;10.13;;
82242;SDS011;71844;51.528;4.442;2023-11-22T11:51:40;17.30;;;9.32;;
82242;SDS011;71844;51.528;4.442;2023-11-22T11:54:13;15.57;;;8.75;;
82242;SDS011;71844;51.528;4.442;2023-11-22T11:56:44;16.33;;;8.85;;
82242;SDS011;71844;51.528;4.442;2023-11-22T11:59:15;16.25;;;8.15;;
82242;SDS011;71844;51.528;4.442;2023-11-22T12:01:45;16.80;;;8.60;;
82242;SDS011;71844;51.528;4.442;2023-11-22T12:04:12;16.13;;;8.48;;
82242;SDS011;71844;51.528;4.442;2023-11-22T12:06:45;14.70;;;7.20;;
82242;SDS011;71844;51.528;4.442;2023-11-22T12:09:26;16.42;;;8.02;;
82242;SDS011;71844;51.528;4.442;2023-11-22T12:11:59;15.43;;;7.95;;
82242;SDS011;71844;51.528;4.442;2023-11-22T12:14:34;14.02;;;7.07;;
82242;SDS011;71844;51.528;4.442;2023-11-22T12:17:01;16.17;;;7.65;;
82242;SDS011;71844;51.528;4.442;2023-11-22T12:19:36;16.20;;;8.45;;
82242;SDS011;71844;51.528;4.442;2023-11-22T12:22:09;17.33;;;8.70;;
82242;SDS011;71844;51.528;4.442;2023-11-22T12:24:38;18.42;;;8.57;;
82242;SDS011;71844;51.528;4.442;2023-11-22T12:27:05;19.30;;;8.98;;
82242;SDS011;71844;51.528;4.442;2023-11-22T12:29:39;21.55;;;11.15;;
82242;SDS011;71844;51.528;4.442;2023-11-22T12:32:09;18.92;;;9.98;;
82242;SDS011;71844;51.528;4.442;2023-11-22T12:34:37;21.63;;;9.90;;
82242;SDS011;71844;51.528;4.442;2023-11-22T12:37:06;20.23;;;9.18;;
82242;SDS011;71844;51.528;4.442;2023-11-22T12:39:46;23.90;;;10.60;;
82242;SDS011;71844;51.528;4.442;2023-11-22T12:42:14;25.10;;;10.68;;
82242;SDS011;71844;51.528;4.442;2023-11-22T12:44:49;23.67;;;10.57;;
82242;SDS011;71844;51.528;4.442;2023-11-22T12:47:34;24.35;;;11.10;;
82242;SDS011;71844;51.528;4.442;2023-11-22T12:55:23;23.67;;;10.90;;
82242;SDS011;71844;51.528;4.442;2023-11-22T12:57:57;24.27;;;11.20;;
82242;SDS011;71844;51.528;4.442;2023-11-22T13:00:29;29.67;;;12.20;;
82242;SDS011;71844;51.528;4.442;2023-11-22T13:02:56;25.98;;;11.25;;
82242;SDS011;71844;51.528;4.442;2023-11-22T13:05:29;28.08;;;11.57;;
82242;SDS011;71844;51.528;4.442;2023-11-22T13:07:56;30.83;;;13.32;;
82242;SDS011;71844;51.528;4.442;2023-11-22T13:10:26;35.70;;;14.25;;
82242;SDS011;71844;51.528;4.442;2023-11-22T13:12:53;32.38;;;13.80;;
82242;SDS011;71844;51.528;4.442;2023-11-22T13:15:20;29.50;;;12.30;;
82242;SDS011;71844;51.528;4.442;2023-11-22T13:17:50;32.38;;;13.40;;
82242;SDS011;71844;51.528;4.442;2023-11-22T13:20:24;28.80;;;12.05;;
82242;SDS011;71844;51.528;4.442;2023-11-22T13:22:55;30.02;;;12.75;;
82242;SDS011;71844;51.528;4.442;2023-11-22T13:25:22;26.90;;;11.52;;
82242;SDS011;71844;51.528;4.442;2023-11-22T13:27:50;27.10;;;10.35;;
82242;SDS011;71844;51.528;4.442;2023-11-22T13:30:18;25.58;;;10.85;;
82242;SDS011;71844;51.528;4.442;2023-11-22T13:32:49;22.27;;;9.93;;
82242;SDS011;71844;51.528;4.442;2023-11-22T13:35:16;27.40;;;11.00;;
82242;SDS011;71844;51.528;4.442;2023-11-22T13:37:44;23.17;;;10.45;;
82242;SDS011;71844;51.528;4.442;2023-11-22T13:40:13;24.27;;;8.70;;
82242;SDS011;71844;51.528;4.442;2023-11-22T13:42:46;23.85;;;10.25;;
82242;SDS011;71844;51.528;4.442;2023-11-22T13:45:14;23.30;;;9.68;;
82242;SDS011;71844;51.528;4.442;2023-11-22T13:47:43;24.08;;;9.15;;
82242;SDS011;71844;51.528;4.442;2023-11-22T13:52:45;17.10;;;7.25;;
82242;SDS011;71844;51.528;4.442;2023-11-22T13:55:12;18.10;;;7.30;;
82242;SDS011;71844;51.528;4.442;2023-11-22T13:57:41;19.63;;;8.20;;
82242;SDS011;71844;51.528;4.442;2023-11-22T14:00:08;16.17;;;7.03;;
82242;SDS011;71844;51.528;4.442;2023-11-22T14:02:39;16.20;;;7.05;;
82242;SDS011;71844;51.528;4.442;2023-11-22T14:05:07;17.58;;;7.30;;
82242;SDS011;71844;51.528;4.442;2023-11-22T14:07:34;18.08;;;7.60;;
82242;SDS011;71844;51.528;4.442;2023-11-22T14:10:02;17.88;;;8.10;;
82242;SDS011;71844;51.528;4.442;2023-11-22T14:12:30;16.60;;;8.00;;
82242;SDS011;71844;51.528;4.442;2023-11-22T14:14:58;15.75;;;6.88;;
82242;SDS011;71844;51.528;4.442;2023-11-22T14:17:26;18.23;;;8.02;;
82242;SDS011;71844;51.528;4.442;2023-11-22T14:19:53;21.08;;;8.20;;
82242;SDS011;71844;51.528;4.442;2023-11-22T14:22:20;15.43;;;7.18;;
82242;SDS011;71844;51.528;4.442;2023-11-22T14:24:48;18.00;;;7.60;;
82242;SDS011;71844;51.528;4.442;2023-11-22T14:27:17;16.73;;;8.15;;
82242;SDS011;71844;51.528;4.442;2023-11-22T14:29:46;16.00;;;7.80;;
82242;SDS011;71844;51.528;4.442;2023-11-22T14:32:17;14.50;;;7.13;;
82242;SDS011;71844;51.528;4.442;2023-11-22T14:34:46;16.50;;;7.50;;
82242;SDS011;71844;51.528;4.442;2023-11-22T14:37:16;13.95;;;6.47;;
82242;SDS011;71844;51.528;4.442;2023-11-22T14:39:43;14.43;;;7.03;;
82242;SDS011;71844;51.528;4.442;2023-11-22T14:42:10;14.85;;;7.55;;
82242;SDS011;71844;51.528;4.442;2023-11-22T14:44:37;15.88;;;7.95;;
82242;SDS011;71844;51.528;4.442;2023-11-22T14:47:04;14.27;;;6.47;;
82242;SDS011;71844;51.528;4.442;2023-11-22T14:49:41;13.63;;;6.40;;
82242;SDS011;71844;51.528;4.442;2023-11-22T14:52:12;13.90;;;6.75;;
82242;SDS011;71844;51.528;4.442;2023-11-22T14:54:42;13.05;;;6.25;;
82242;SDS011;71844;51.528;4.442;2023-11-22T14:57:12;13.38;;;6.70;;
82242;SDS011;71844;51.528;4.442;2023-11-22T14:59:39;12.35;;;5.93;;
82242;SDS011;71844;51.528;4.442;2023-11-22T15:02:07;11.13;;;5.57;;
82242;SDS011;71844;51.528;4.442;2023-11-22T15:04:37;13.20;;;6.38;;
82242;SDS011;71844;51.528;4.442;2023-11-22T15:07:04;19.17;;;6.88;;
82242;SDS011;71844;51.528;4.442;2023-11-22T15:09:33;13.15;;;6.68;;
82242;SDS011;71844;51.528;4.442;2023-11-22T15:12:00;12.25;;;5.95;;
82242;SDS011;71844;51.528;4.442;2023-11-22T15:14:30;12.32;;;6.20;;
82242;SDS011;71844;51.528;4.442;2023-11-22T15:16:59;14.45;;;6.55;;
82242;SDS011;71844;51.528;4.442;2023-11-22T15:19:32;12.40;;;5.85;;
82242;SDS011;71844;51.528;4.442;2023-11-22T15:21:59;12.52;;;6.28;;